Time;durP1;ratioP1;P1;durP2;ratioP2;P2;SDS_P1;SDS_P2;PMS_P1;PMS_P2;Temp;Humidity;BMP_temperature;BMP_pressure;BME280_temperature;BME280_humidity;BME280_pressure;Samples;Min_cycle;Max_cycle;Signal;HPM_P1;HPM_P2
2023/04/09 00:01:10;;;;;;;9.13;5.18;;;;;;;19.78;50.21;99569.41;4974175;28;20038;-62
2023/04/09 00:03:36;;;;;;;6.97;4.32;;;;;;;19.77;50.04;99575.63;4974512;28;20493;-63
2023/04/09 00:06:03;;;;;;;8.50;5.53;;;;;;;19.78;49.86;99579.97;4975122;28;20041;-62
2023/04/09 00:08:29;;;;;;;7.90;4.90;;;;;;;19.75;50.10;99572.19;4975263;28;20030;-63
2023/04/09 00:10:56;;;;;;;7.22;4.53;;;;;;;19.72;50.13;99570.56;4974513;28;20034;-62
2023/04/09 00:13:21;;;;;;;7.38;4.85;;;;;;;19.72;50.24;99567.06;4974966;28;20038;-62
2023/04/09 00:15:47;;;;;;;6.80;4.07;;;;;;;19.71;50.04;99560.06;4974597;28;20026;-63
2023/04/09 00:18:13;;;;;;;7.88;4.88;;;;;;;19.70;50.14;99566.28;4974378;28;20043;-63
2023/04/09 00:20:38;;;;;;;6.82;4.47;;;;;;;19.67;50.36;99566.47;4974602;28;20031;-63
2023/04/09 00:23:04;;;;;;;6.82;4.22;;;;;;;19.66;50.44;99570.06;4973629;28;20023;-63
2023/04/09 00:25:29;;;;;;;6.97;4.15;;;;;;;19.65;50.16;99569.19;4974315;28;20453;-62
2023/04/09 00:27:55;;;;;;;7.55;4.88;;;;;;;19.64;50.00;99562.19;4974518;28;20173;-62
2023/04/09 00:30:21;;;;;;;8.07;4.82;;;;;;;19.64;50.22;99567.47;4973696;28;20082;-63
2023/04/09 00:32:46;;;;;;;7.97;4.38;;;;;;;19.61;50.35;99553.56;4974227;28;20034;-63
2023/04/09 00:35:12;;;;;;;6.82;4.40;;;;;;;19.59;50.11;99554.50;4974283;28;20031;-62
2023/04/09 00:37:37;;;;;;;6.47;4.03;;;;;;;19.59;50.34;99558.94;4974065;28;20043;-63
2023/04/09 00:40:04;;;;;;;5.70;3.45;;;;;;;19.56;50.07;99554.66;4973975;28;20190;-63
2023/04/09 00:42:34;;;;;;;5.93;3.90;;;;;;;19.56;49.99;99554.66;4956685;28;20101;-63
2023/04/09 00:45:00;;;;;;;5.85;3.83;;;;;;;19.55;50.34;99552.94;4973587;28;20027;-63
2023/04/09 00:47:27;;;;;;;7.03;4.50;;;;;;;19.54;50.15;99545.09;4974415;28;20034;-63
2023/04/09 00:49:54;;;;;;;7.00;4.60;;;;;;;19.53;50.16;99549.53;4974628;28;20027;-63
2023/04/09 00:52:20;;;;;;;6.47;4.18;;;;;;;19.53;50.02;99552.19;4973510;28;20023;-63
2023/04/09 00:54:47;;;;;;;7.15;4.03;;;;;;;19.51;50.21;99551.41;4973702;28;20485;-63
2023/04/09 00:57:14;;;;;;;6.18;4.10;;;;;;;19.49;50.05;99547.13;4973841;28;20038;-62
2023/04/09 00:59:39;;;;;;;7.13;4.03;;;;;;;19.47;50.10;99546.34;4973224;28;20093;-63
2023/04/09 01:02:05;;;;;;;5.65;3.65;;;;;;;19.48;50.07;99548.94;4973591;28;20026;-63
2023/04/09 01:04:31;;;;;;;7.53;4.10;;;;;;;19.46;50.18;99558.72;4973950;28;20027;-63
2023/04/09 01:07:22;;;;;;;6.32;3.83;;;;;;;19.44;50.17;99555.31;4973766;28;20027;-62
2023/04/09 01:10:15;;;;;;;5.70;3.80;;;;;;;19.44;49.94;99550.03;4972407;28;20030;-63
2023/04/09 01:12:59;;;;;;;6.13;3.88;;;;;;;19.41;49.99;99539.59;4973738;28;20023;-63
2023/04/09 01:15:28;;;;;;;5.78;3.17;;;;;;;19.40;50.19;99544.03;4973646;28;20034;-63
2023/04/09 01:18:08;;;;;;;6.75;4.00;;;;;;;19.39;50.06;99541.47;4973831;28;20046;-62
2023/04/09 01:21:15;;;;;;;5.65;3.33;;;;;;;19.37;49.95;99554.78;4972274;28;20063;-62
2023/04/09 01:24:01;;;;;;;6.03;3.47;;;;;;;19.37;50.07;99548.66;4913691;29;20044;-63
2023/04/09 01:27:03;;;;;;;5.82;3.33;;;;;;;19.35;50.10;99555.78;4913590;29;20198;-64
2023/04/09 01:29:42;;;;;;;5.75;3.67;;;;;;;19.32;50.13;99547.09;4913467;29;20087;-63
2023/04/09 01:32:08;;;;;;;6.57;3.75;;;;;;;19.31;50.09;99550.69;4913130;29;20431;-64
2023/04/09 01:34:35;;;;;;;6.05;3.80;;;;;;;19.30;50.11;99548.09;4913518;29;20043;-63
2023/04/09 01:37:02;;;;;;;4.70;2.92;;;;;;;19.28;50.22;99545.53;4913023;29;20039;-62
2023/04/09 01:39:28;;;;;;;5.50;3.65;;;;;;;19.27;49.85;99549.13;4912915;29;20513;-62
2023/04/09 01:41:55;;;;;;;5.18;3.10;;;;;;;19.26;49.98;99547.41;4912543;29;20024;-63
2023/04/09 01:44:22;;;;;;;5.75;3.42;;;;;;;19.26;49.83;99551.84;4896641;29;20038;-63
2023/04/09 01:46:48;;;;;;;5.13;3.30;;;;;;;19.26;49.87;99546.53;4882517;29;20134;-63
2023/04/09 01:49:15;;;;;;;4.68;2.78;;;;;;;19.26;49.68;99543.91;4912969;29;20055;-62
2023/04/09 01:51:41;;;;;;;4.45;2.70;;;;;;;19.23;49.84;99547.56;4913516;29;20076;-63
2023/04/09 01:54:07;;;;;;;6.55;3.70;;;;;;;19.24;49.95;99538.72;4913048;29;20443;-63
2023/04/09 01:56:48;;;;;;;5.85;3.58;;;;;;;19.22;49.90;99535.28;4912913;29;20200;-62
2023/04/09 01:59:13;;;;;;;6.10;3.38;;;;;;;19.21;49.83;99538.84;4944675;28;20042;-63
2023/04/09 02:01:48;;;;;;;5.18;2.85;;;;;;;19.18;49.80;99539.88;4972491;28;20448;-63
2023/04/09 02:04:29;;;;;;;5.03;2.92;;;;;;;19.16;49.73;99540.88;4972057;28;20077;-63
2023/04/09 02:07:05;;;;;;;5.07;2.78;;;;;;;19.17;49.80;99540.81;4972492;28;20034;-63
2023/04/09 02:09:32;;;;;;;;;;;;;;;19.14;49.77;99532.19;4972802;28;20105;-63
2023/04/09 02:12:00;;;;;;;;;;;;;;;19.16;49.72;99535.59;4973134;28;19918;-63
2023/04/09 02:14:27;;;;;;;4.90;2.83;;;;;;;19.17;49.48;99542.59;4973021;28;20005;-63
2023/04/09 02:16:52;;;;;;;4.88;2.55;;;;;;;19.13;49.75;99546.34;4972239;28;20086;-62
2023/04/09 02:19:18;;;;;;;4.47;2.72;;;;;;;19.13;49.46;99546.34;4972543;28;20034;-63
2023/04/09 02:21:43;;;;;;;4.80;2.75;;;;;;;19.10;49.71;99546.50;4972167;28;20077;-63
2023/04/09 02:24:09;;;;;;;4.90;3.08;;;;;;;19.09;49.46;99545.66;4972989;28;20031;-63
2023/04/09 02:26:34;;;;;;;5.28;2.90;;;;;;;19.08;49.53;99548.38;4972223;28;20078;-62
2023/04/09 02:29:00;;;;;;;4.95;2.78;;;;;;;19.07;49.57;99544.03;4972223;28;20027;-63
2023/04/09 02:31:25;;;;;;;4.50;2.67;;;;;;;19.05;49.51;99542.28;4972899;28;20035;-63
2023/04/09 02:33:52;;;;;;;4.00;2.38;;;;;;;19.07;49.55;99542.22;4972673;28;20054;-63
2023/04/09 02:36:18;;;;;;;4.90;2.97;;;;;;;19.06;49.46;99545.81;4973005;28;20023;-62
2023/04/09 02:38:43;;;;;;;5.35;3.15;;;;;;;19.04;49.56;99547.69;4972385;28;20408;-63
2023/04/09 02:41:09;;;;;;;4.85;2.80;;;;;;;19.02;49.39;99545.06;4972159;28;20075;-63
2023/04/09 02:43:34;;;;;;;4.35;2.25;;;;;;;19.02;49.62;99545.06;4972674;28;20400;-63
2023/04/09 02:46:00;;;;;;;5.32;3.15;;;;;;;19.02;49.67;99545.06;4974117;28;20018;-63
2023/04/09 02:48:25;;;;;;;4.22;2.50;;;;;;;19.00;49.34;99546.94;4976294;28;20060;-63
2023/04/09 02:50:51;;;;;;;4.75;2.60;;;;;;;18.99;49.53;99541.72;4976463;28;20019;-63
2023/04/09 02:53:16;;;;;;;4.80;2.47;;;;;;;18.98;49.40;99542.69;4976676;28;20031;-63
2023/04/09 02:55:41;;;;;;;4.10;2.30;;;;;;;18.96;49.39;99550.69;4975733;28;20026;-63
2023/04/09 02:58:07;;;;;;;4.28;2.47;;;;;;;18.94;49.62;99541.97;4976042;28;20117;-62
2023/04/09 03:00:32;;;;;;;4.72;2.65;;;;;;;18.94;49.65;99535.81;4976232;28;20078;-62
2023/04/09 03:02:58;;;;;;;5.03;2.63;;;;;;;18.94;49.48;99541.97;4976197;28;20053;-64
2023/04/09 03:05:23;;;;;;;4.68;2.40;;;;;;;18.94;49.49;99541.97;4975931;28;20567;-63
2023/04/09 03:07:49;;;;;;;4.47;2.30;;;;;;;18.94;49.66;99546.41;4975421;28;20019;-63
2023/04/09 03:10:15;;;;;;;4.57;2.30;;;;;;;18.93;49.62;99545.53;4975675;28;20041;-63
2023/04/09 03:12:43;;;;;;;4.28;2.35;;;;;;;18.92;49.54;99544.69;4975843;28;20022;-63
2023/04/09 03:15:09;;;;;;;4.40;2.63;;;;;;;18.90;49.72;99543.06;4975642;28;20027;-63
2023/04/09 03:17:34;;;;;;;4.30;2.22;;;;;;;18.90;49.45;99540.41;4975652;28;20035;-62
2023/04/09 03:20:00;;;;;;;4.07;2.47;;;;;;;18.89;49.70;99536.06;4975607;28;20078;-63
2023/04/09 03:22:25;;;;;;;4.97;2.88;;;;;;;18.87;49.67;99543.19;4973594;28;20030;-63
2023/04/09 03:24:51;;;;;;;3.60;2.03;;;;;;;18.87;49.57;99537.91;4975456;28;20019;-63
2023/04/09 03:27:16;;;;;;;4.45;2.70;;;;;;;18.84;49.49;99540.72;4974905;28;20498;-62
2023/04/09 03:29:41;;;;;;;3.95;2.10;;;;;;;18.83;49.38;99539.03;4975518;28;20249;-62
2023/04/09 03:32:07;;;;;;;5.05;2.60;;;;;;;18.82;49.57;99539.94;4975750;28;20092;-63
2023/04/09 03:34:32;;;;;;;4.18;2.03;;;;;;;18.79;49.44;99538.28;4975150;28;20394;-63
2023/04/09 03:36:58;;;;;;;3.47;2.17;;;;;;;18.76;49.67;99533.19;4975235;28;20107;-63
2023/04/09 03:39:23;;;;;;;4.18;2.00;;;;;;;18.77;49.56;99533.13;4982809;28;20046;-62
2023/04/09 03:41:48;;;;;;;4.55;2.10;;;;;;;18.77;49.31;99538.41;4994834;28;20026;-63
2023/04/09 03:44:14;;;;;;;3.67;2.10;;;;;;;18.76;49.25;99535.81;4978642;28;20019;-63
2023/04/09 03:46:40;;;;;;;4.45;2.60;;;;;;;18.75;49.46;99537.59;4980609;28;20037;-62
2023/04/09 03:49:05;;;;;;;3.83;2.28;;;;;;;18.73;49.29;99534.19;4995023;28;20037;-63
2023/04/09 03:51:30;;;;;;;4.05;2.20;;;;;;;18.71;49.67;99533.41;4995046;28;20022;-63
2023/04/09 03:53:56;;;;;;;4.25;2.40;;;;;;;18.72;49.45;99542.19;4994939;28;20053;-63
2023/04/09 03:56:22;;;;;;;3.60;2.08;;;;;;;18.71;49.56;99541.34;4992446;28;20508;-63
2023/04/09 03:58:48;;;;;;;3.85;2.20;;;;;;;18.71;49.64;99543.13;4974787;28;20481;-63
2023/04/09 04:01:13;;;;;;;3.35;1.83;;;;;;;18.67;49.49;99534.50;4975306;28;20035;-63
2023/04/09 04:03:39;;;;;;;4.13;2.33;;;;;;;18.69;49.57;99539.72;4975626;28;20029;-63
2023/04/09 04:06:04;;;;;;;4.05;2.00;;;;;;;18.65;49.51;99536.38;4976104;28;20035;-63
2023/04/09 04:08:30;;;;;;;3.75;2.10;;;;;;;18.66;49.45;99543.38;4993724;28;20027;-62
2023/04/09 04:11:01;;;;;;;4.18;2.45;;;;;;;18.65;49.31;99531.09;4976948;28;20388;-63
2023/04/09 04:13:27;;;;;;;4.80;2.33;;;;;;;18.64;49.46;99540.78;4994186;28;20034;-62
2023/04/09 04:15:52;;;;;;;4.50;2.33;;;;;;;18.61;49.42;99543.59;4994260;28;20031;-63
2023/04/09 04:18:17;;;;;;;4.07;2.00;;;;;;;18.64;49.34;99542.56;4976148;28;20026;-62
2023/04/09 04:20:43;;;;;;;3.78;2.10;;;;;;;18.60;49.35;99543.69;4974772;28;20093;-63
2023/04/09 04:23:08;;;;;;;3.72;2.05;;;;;;;18.62;49.12;99544.44;4974220;28;20027;-63
2023/04/09 04:25:33;;;;;;;4.18;2.35;;;;;;;18.62;49.52;99536.50;4974391;28;20023;-63
2023/04/09 04:27:59;;;;;;;4.45;2.40;;;;;;;18.60;49.50;99533.09;4989043;28;20033;-63
2023/04/09 04:30:24;;;;;;;4.03;2.03;;;;;;;18.57;49.60;99533.25;4994259;28;20026;-63
2023/04/09 04:32:50;;;;;;;4.10;2.20;;;;;;;18.55;49.40;99528.03;4994313;28;20053;-63
2023/04/09 04:35:15;;;;;;;4.15;2.03;;;;;;;18.57;49.26;99539.41;4994181;28;20045;-62
2023/04/09 04:37:41;;;;;;;4.18;2.17;;;;;;;18.55;49.45;99529.84;4981593;28;20511;-62
2023/04/09 04:40:07;;;;;;;4.15;2.10;;;;;;;18.55;49.23;99540.41;4974521;28;20081;-63
2023/04/09 04:42:33;;;;;;;3.58;2.20;;;;;;;18.51;49.26;99540.53;4974219;28;20038;-63
2023/04/09 04:44:59;;;;;;;3.67;2.00;;;;;;;18.52;49.20;99552.84;4974682;28;20031;-63
2023/04/09 04:47:24;;;;;;;3.60;2.10;;;;;;;18.50;49.46;99548.56;4974525;28;20030;-62
2023/04/09 04:49:50;;;;;;;4.03;2.30;;;;;;;18.48;49.31;99546.00;4974323;28;20484;-62
2023/04/09 04:52:15;;;;;;;3.97;2.13;;;;;;;18.47;49.27;99544.28;4974006;28;20031;-63
2023/04/09 04:54:41;;;;;;;3.63;1.70;;;;;;;18.45;49.16;99551.41;4974463;28;20037;-63
2023/04/09 04:57:06;;;;;;;3.22;1.83;;;;;;;18.46;49.25;99558.41;4974286;28;20019;-62
2023/04/09 04:59:32;;;;;;;3.65;2.13;;;;;;;18.43;49.16;99542.72;4974419;28;20031;-63
2023/04/09 05:01:57;;;;;;;3.35;1.67;;;;;;;18.44;49.11;99549.69;4974227;28;20481;-63
2023/04/09 05:04:23;;;;;;;4.03;2.10;;;;;;;18.42;49.32;99551.56;4974090;28;20130;-62
2023/04/09 05:06:48;;;;;;;3.55;1.83;;;;;;;18.39;49.17;99557.00;4973834;28;20105;-63
2023/04/09 05:09:14;;;;;;;3.13;1.67;;;;;;;18.41;49.46;99560.44;4973543;28;20033;-62
2023/04/09 05:11:39;;;;;;;3.20;1.80;;;;;;;18.36;49.22;99558.00;4974001;28;20078;-62
2023/04/09 05:14:05;;;;;;;3.78;2.10;;;;;;;18.38;49.13;99564.09;4974136;28;20041;-62
2023/04/09 05:16:31;;;;;;;3.42;1.92;;;;;;;18.39;48.93;99570.19;4974037;28;20026;-62
2023/04/09 05:18:56;;;;;;;2.88;1.73;;;;;;;18.36;49.26;99573.00;4974035;28;20522;-62
2023/04/09 05:21:22;;;;;;;4.00;2.13;;;;;;;18.34;49.33;99581.00;4973602;28;20425;-63
2023/04/09 05:23:47;;;;;;;3.42;1.85;;;;;;;18.31;49.07;99580.28;4973545;28;20027;-63
2023/04/09 05:26:12;;;;;;;3.80;1.98;;;;;;;18.32;48.93;99582.88;4973859;28;20031;-62
2023/04/09 05:28:38;;;;;;;2.88;1.67;;;;;;;18.30;49.06;99583.88;4973653;28;20060;-63
2023/04/09 05:31:03;;;;;;;3.20;1.83;;;;;;;18.29;49.23;99579.50;4973435;28;20031;-62
2023/04/09 05:33:29;;;;;;;3.40;2.10;;;;;;;18.29;49.17;99582.13;4973709;28;20393;-63
2023/04/09 05:35:54;;;;;;;3.42;2.05;;;;;;;18.29;49.14;99582.13;4973265;28;20029;-63
2023/04/09 05:38:20;;;;;;;3.30;1.75;;;;;;;18.25;49.14;99592.00;4973482;28;20038;-62
2023/04/09 05:40:47;;;;;;;3.60;1.95;;;;;;;18.25;49.24;99592.88;4992743;28;20047;-63
2023/04/09 05:43:13;;;;;;;3.63;1.90;;;;;;;18.25;48.90;99603.44;4984860;28;20031;-63
2023/04/09 05:45:38;;;;;;;3.65;1.92;;;;;;;18.23;49.23;99600.00;4973629;28;20504;-63
2023/04/09 05:48:04;;;;;;;3.60;2.00;;;;;;;18.23;49.20;99599.16;4987152;28;20030;-63
2023/04/09 05:50:30;;;;;;;3.28;1.90;;;;;;;18.22;48.99;99603.56;4992875;28;20616;-63
2023/04/09 05:52:55;;;;;;;3.25;1.80;;;;;;;18.20;49.12;99610.72;4992728;28;20074;-63
2023/04/09 05:55:21;;;;;;;3.47;1.85;;;;;;;18.20;49.02;99607.19;4992942;28;20031;-62
2023/04/09 05:57:47;;;;;;;3.45;1.50;;;;;;;18.21;48.98;99607.13;4981035;28;20034;-62
2023/04/09 06:00:13;;;;;;;2.65;1.60;;;;;;;18.22;49.07;99615.94;4973167;28;20030;-62
2023/04/09 06:02:38;;;;;;;3.58;1.85;;;;;;;18.20;49.08;99609.84;4973022;28;20027;-62
2023/04/09 06:05:04;;;;;;;2.63;1.58;;;;;;;18.20;49.14;99618.63;4973089;28;20022;-62
2023/04/09 06:07:29;;;;;;;3.50;1.58;;;;;;;18.18;48.98;99617.84;4978874;28;20041;-62
2023/04/09 06:09:55;;;;;;;3.60;1.90;;;;;;;18.18;49.14;99624.91;4992742;28;20024;-63
2023/04/09 06:12:20;;;;;;;3.33;1.80;;;;;;;18.18;48.96;99627.56;4992566;28;20019;-62
2023/04/09 06:14:47;;;;;;;3.03;1.60;;;;;;;18.18;49.26;99628.44;4993019;28;20033;-63
2023/04/09 06:17:13;;;;;;;3.40;1.80;;;;;;;18.17;49.13;99631.13;4985511;28;20034;-63
2023/04/09 06:19:38;;;;;;;2.40;1.55;;;;;;;18.16;49.07;99630.25;4973235;28;20082;-62
2023/04/09 06:22:04;;;;;;;2.97;1.75;;;;;;;18.15;48.97;99633.84;4976118;28;20023;-62
2023/04/09 06:24:31;;;;;;;2.85;1.67;;;;;;;18.17;49.27;99632.00;4976987;28;20027;-63
2023/04/09 06:26:56;;;;;;;3.05;1.60;;;;;;;18.15;49.29;99636.47;4981452;28;20029;-62
2023/04/09 06:29:22;;;;;;;3.53;1.75;;;;;;;18.15;48.87;99633.84;4996670;28;20110;-62
2023/04/09 06:31:47;;;;;;;2.50;1.58;;;;;;;18.16;48.83;99635.53;4996256;28;20034;-62
2023/04/09 06:34:12;;;;;;;3.78;1.90;;;;;;;18.17;48.95;99637.28;4996383;28;20030;-63
2023/04/09 06:36:39;;;;;;;3.53;1.80;;;;;;;18.16;49.23;99635.53;4994736;28;20026;-63
2023/04/09 06:39:04;;;;;;;3.25;1.67;;;;;;;18.17;49.02;99637.28;4976605;28;20038;-62
2023/04/09 06:41:31;;;;;;;4.15;2.05;;;;;;;18.16;49.04;99640.81;4976861;28;20027;-63
2023/04/09 06:43:56;;;;;;;4.00;1.75;;;;;;;18.15;48.81;99639.13;4976725;28;20022;-63
2023/04/09 06:46:22;;;;;;;3.65;1.60;;;;;;;18.17;48.81;99636.41;4976396;28;20031;-63
2023/04/09 06:48:48;;;;;;;2.60;1.33;;;;;;;18.14;48.83;99634.78;4976744;28;20523;-62
2023/04/09 06:51:14;;;;;;;2.80;1.45;;;;;;;18.16;49.11;99643.47;4976777;28;20022;-63
2023/04/09 06:53:40;;;;;;;3.65;2.20;;;;;;;18.16;48.90;99640.81;4976681;28;20026;-62
2023/04/09 06:56:06;;;;;;;3.15;1.60;;;;;;;18.14;48.86;99642.69;4976549;28;20022;-62
2023/04/09 06:58:31;;;;;;;4.25;1.60;;;;;;;18.16;49.03;99647.91;4976382;28;20086;-62
2023/04/09 07:00:56;;;;;;;3.55;1.73;;;;;;;18.16;48.69;99646.09;4976228;28;20053;-62
2023/04/09 07:03:22;;;;;;;3.85;1.90;;;;;;;18.15;49.03;99649.69;4976376;28;20034;-63
2023/04/09 07:05:47;;;;;;;3.03;1.70;;;;;;;18.17;48.74;99662.81;4976386;28;20528;-63
2023/04/09 07:08:13;;;;;;;3.42;1.73;;;;;;;18.16;49.02;99656.66;4976266;28;20046;-62
2023/04/09 07:10:39;;;;;;;3.83;1.73;;;;;;;18.17;48.89;99666.34;4976325;28;20068;-63
2023/04/09 07:13:05;;;;;;;3.15;1.65;;;;;;;18.16;48.99;99667.22;4976416;28;20430;-63
2023/04/09 07:15:31;;;;;;;3.20;1.77;;;;;;;18.19;48.73;99666.25;4975920;28;20478;-62
2023/04/09 07:17:56;;;;;;;4.15;1.55;;;;;;;18.18;48.88;99661.88;4975869;28;20037;-62
2023/04/09 07:20:22;;;;;;;3.30;1.48;;;;;;;18.20;48.90;99660.03;4975989;28;20019;-62
2023/04/09 07:22:47;;;;;;;4.35;2.00;;;;;;;18.21;48.82;99664.41;4976187;28;20030;-64
2023/04/09 07:25:14;;;;;;;3.05;1.52;;;;;;;18.23;48.85;99665.19;4976000;28;20030;-62
2023/04/09 07:27:39;;;;;;;2.90;1.63;;;;;;;18.22;48.88;99666.94;4975945;28;20031;-63
2023/04/09 07:30:05;;;;;;;2.92;1.50;;;;;;;18.23;48.84;99665.19;4975393;28;20400;-63
2023/04/09 07:32:31;;;;;;;3.63;1.77;;;;;;;18.20;48.77;99666.19;4975442;28;20023;-62
2023/04/09 07:34:58;;;;;;;2.65;1.45;;;;;;;18.21;48.63;99674.97;4975859;28;20501;-62
2023/04/09 07:37:23;;;;;;;2.78;1.70;;;;;;;18.23;48.97;99676.63;4975576;28;20031;-63
2023/04/09 07:39:50;;;;;;;3.63;1.70;;;;;;;18.22;48.47;99680.16;4987293;28;20056;-62
2023/04/09 07:42:15;;;;;;;3.22;1.48;;;;;;;18.24;48.61;99674.81;4976117;28;20042;-63
2023/04/09 07:44:41;;;;;;;2.80;1.60;;;;;;;18.25;48.39;99672.09;4975319;28;20030;-62
2023/04/09 07:47:07;;;;;;;2.85;1.50;;;;;;;18.24;48.34;99673.03;4979972;28;20033;-63
2023/04/09 07:49:34;;;;;;;3.45;1.67;;;;;;;18.25;48.35;99671.25;4995120;28;20026;-62
2023/04/09 07:52:00;;;;;;;3.50;1.27;;;;;;;18.25;48.38;99671.25;4995099;28;20031;-63
2023/04/09 07:54:25;;;;;;;2.65;1.52;;;;;;;18.27;48.47;99673.81;4995840;28;20026;-64
2023/04/09 07:56:51;;;;;;;3.28;1.50;;;;;;;18.27;48.56;99681.75;4993399;28;20109;-62
2023/04/09 07:59:17;;;;;;;2.88;1.50;;;;;;;18.29;48.34;99678.09;4975968;28;20023;-62
2023/04/09 08:01:43;;;;;;;2.85;1.60;;;;;;;18.30;48.54;99679.81;4958915;28;20054;-63
2023/04/09 08:04:09;;;;;;;2.47;1.35;;;;;;;18.32;48.61;99679.75;4978336;28;20090;-63
2023/04/09 08:06:35;;;;;;;2.65;1.63;;;;;;;18.32;48.27;99669.19;4975728;28;20019;-62
2023/04/09 08:09:01;;;;;;;3.13;1.50;;;;;;;18.34;48.21;99683.16;4994888;28;20041;-62
2023/04/09 08:11:27;;;;;;;3.15;1.45;;;;;;;18.34;48.17;99685.81;4977425;28;20037;-62
2023/04/09 08:13:52;;;;;;;3.30;1.63;;;;;;;18.34;48.19;99693.72;4994604;28;20110;-62
2023/04/09 08:16:19;;;;;;;2.95;1.60;;;;;;;18.35;48.20;99691.03;4994996;28;20033;-63
2023/04/09 08:18:45;;;;;;;2.88;1.50;;;;;;;18.39;48.41;99699.66;4977320;28;20516;-63
2023/04/09 08:21:11;;;;;;;3.75;1.63;;;;;;;18.40;48.30;99679.41;4974665;28;20101;-62
2023/04/09 08:23:36;;;;;;;3.25;1.27;;;;;;;18.40;48.44;99682.88;4974599;28;20507;-63
2023/04/09 08:26:02;;;;;;;2.92;1.60;;;;;;;18.42;48.42;99685.44;4975137;28;20110;-63
2023/04/09 08:28:28;;;;;;;3.08;1.48;;;;;;;18.40;48.32;99690.81;4974699;28;20038;-63
2023/04/09 08:30:53;;;;;;;3.17;1.70;;;;;;;18.42;48.33;99693.38;4974927;28;20018;-62
2023/04/09 08:33:19;;;;;;;2.08;1.27;;;;;;;18.41;48.11;99691.66;4974799;28;20106;-62
2023/04/09 08:35:44;;;;;;;3.08;1.45;;;;;;;18.41;48.08;99687.25;4957376;28;20092;-62
2023/04/09 08:38:10;;;;;;;2.58;1.20;;;;;;;18.45;48.25;99687.97;4974656;28;20105;-63
2023/04/09 08:40:36;;;;;;;3.30;1.60;;;;;;;18.46;48.00;99684.41;4974406;28;20049;-62
2023/04/09 08:43:05;;;;;;;3.22;1.40;;;;;;;18.47;47.93;99686.97;4973468;28;20058;-63
2023/04/09 08:45:30;;;;;;;2.65;1.17;;;;;;;18.48;48.31;99687.81;4974392;28;20055;-63
2023/04/09 08:47:59;;;;;;;3.13;1.58;;;;;;;18.47;47.94;99692.25;4974584;28;20050;-62
2023/04/09 08:50:34;;;;;;;2.72;1.40;;;;;;;18.51;47.95;99692.97;4974497;28;20073;-62
2023/04/09 08:53:01;;;;;;;3.42;1.52;;;;;;;18.54;47.92;99682.22;4974359;28;20054;-63
2023/04/09 08:55:27;;;;;;;2.60;1.42;;;;;;;18.55;47.87;99683.09;4974470;28;20034;-62
2023/04/09 08:57:52;;;;;;;2.65;1.48;;;;;;;18.57;47.94;99687.38;4973944;28;20413;-63
2023/04/09 09:00:18;;;;;;;2.13;1.20;;;;;;;18.56;48.09;99687.44;4974411;28;20477;-62
2023/04/09 09:03:04;;;;;;;2.08;1.30;;;;;;;18.58;48.04;99669.72;4974264;28;20109;-62
2023/04/09 09:05:40;;;;;;;;;;;;;;;18.64;47.89;99687.94;4974718;28;20050;-62
2023/04/09 09:08:09;;;;;;;2.75;1.52;;;;;;;18.64;47.92;99686.16;4974261;28;20008;-62
2023/04/09 09:10:45;;;;;;;2.83;1.60;;;;;;;18.66;47.75;99691.38;4974146;28;20031;-62
2023/04/09 09:13:25;;;;;;;3.23;1.60;;;;;;;18.67;48.02;99690.44;4956453;28;20030;-62
2023/04/09 09:15:55;;;;;;;2.33;1.27;;;;;;;18.68;47.78;99686.88;4973885;28;20034;-63
2023/04/09 09:18:39;;;;;;;4.07;1.70;;;;;;;18.71;47.84;99684.09;4973921;28;20518;-63
2023/04/09 09:21:14;;;;;;;3.60;1.50;;;;;;;18.72;47.88;99682.28;4973940;28;20520;-62
2023/04/09 09:23:41;;;;;;;3.23;1.33;;;;;;;18.73;47.75;99682.22;4973886;28;20485;-62
2023/04/09 09:26:21;;;;;;;2.95;1.45;;;;;;;18.73;47.75;99684.88;4973757;28;20263;-62
2023/04/09 09:28:48;;;;;;;2.28;1.38;;;;;;;18.76;47.81;99682.09;4973751;28;20023;-63
2023/04/09 09:31:15;;;;;;;3.63;1.30;;;;;;;18.77;47.71;99673.22;4973696;28;20502;-62
2023/04/09 09:33:41;;;;;;;2.75;1.30;;;;;;;18.79;47.73;99676.63;4973764;28;20031;-63
2023/04/09 09:36:10;;;;;;;3.08;1.48;;;;;;;18.80;47.78;99677.50;4973688;28;20493;-62
2023/04/09 09:38:55;;;;;;;3.05;1.50;;;;;;;18.81;47.99;99684.50;4973462;28;20109;-62
2023/04/09 09:41:22;;;;;;;2.35;1.10;;;;;;;18.83;47.62;99681.78;4973195;28;20103;-62
2023/04/09 09:43:48;;;;;;;3.38;1.35;;;;;;;18.84;47.55;99675.56;4973638;28;20433;-62
2023/04/09 09:46:14;;;;;;;3.78;1.40;;;;;;;18.85;47.67;99674.63;4973603;28;20416;-62
2023/04/09 09:48:41;;;;;;;1.90;1.25;;;;;;;18.85;47.73;99670.22;4973500;28;20113;-62
2023/04/09 09:51:10;;;;;;;2.47;1.30;;;;;;;18.87;47.69;99670.97;4973454;28;20031;-62
2023/04/09 09:53:37;;;;;;;2.28;1.30;;;;;;;18.88;47.98;99675.34;4973271;28;20039;-62
2023/04/09 09:56:13;;;;;;;2.95;1.60;;;;;;;18.89;47.82;99677.03;4972923;28;20499;-63
2023/04/09 09:58:51;;;;;;;2.25;1.15;;;;;;;18.90;47.66;99678.75;4973444;28;20058;-63
2023/04/09 10:01:20;;;;;;;2.08;1.17;;;;;;;18.92;47.82;99682.19;4973510;28;20505;-62
2023/04/09 10:03:49;;;;;;;2.88;1.40;;;;;;;18.92;48.07;99682.19;4973486;28;20114;-62
2023/04/09 10:06:15;;;;;;;2.22;1.20;;;;;;;18.94;47.61;99674.19;4972232;28;20019;-62
2023/04/09 10:08:41;;;;;;;2.38;1.30;;;;;;;18.96;48.08;99674.09;4971963;28;20500;-62
2023/04/09 10:11:07;;;;;;;2.55;1.17;;;;;;;18.97;47.62;99675.81;4972849;28;20035;-62
2023/04/09 10:13:37;;;;;;;2.35;1.10;;;;;;;18.99;47.92;99682.72;4973228;28;20058;-62
2023/04/09 10:16:05;;;;;;;2.35;1.33;;;;;;;19.00;48.13;99683.59;4973348;28;20027;-62
2023/04/09 10:18:33;;;;;;;2.63;1.20;;;;;;;19.02;48.17;99677.31;4973186;28;20034;-63
2023/04/09 10:21:11;;;;;;;2.78;1.33;;;;;;;19.04;47.85;99670.16;4973456;28;20023;-63
2023/04/09 10:23:39;;;;;;;2.42;1.27;;;;;;;19.05;48.02;99677.16;4972861;28;20019;-63
2023/04/09 10:26:05;;;;;;;2.47;1.38;;;;;;;19.07;47.83;99668.31;4973220;28;20051;-62
2023/04/09 10:28:31;;;;;;;2.78;1.27;;;;;;;19.08;47.99;99668.22;4972918;28;20489;-62
2023/04/09 10:30:57;;;;;;;2.05;1.30;;;;;;;19.08;48.10;99665.59;4973077;28;20031;-62
2023/04/09 10:33:26;;;;;;;3.42;1.20;;;;;;;19.09;47.95;99666.44;4972984;28;20034;-62
2023/04/09 10:36:00;;;;;;;2.33;1.35;;;;;;;19.10;47.86;99657.56;4972969;28;20031;-63
2023/04/09 10:38:36;;;;;;;2.15;1.15;;;;;;;19.12;47.87;99661.03;4972536;28;20035;-62
2023/04/09 10:41:20;;;;;;;2.45;1.17;;;;;;;19.14;48.37;99664.44;4972586;28;20035;-63
2023/04/09 10:43:47;;;;;;;2.42;1.50;;;;;;;19.14;48.30;99652.03;4972887;28;20031;-63
2023/04/09 10:46:44;;;;;;;2.10;1.10;;;;;;;19.16;48.13;99651.97;4973049;28;20117;-62
2023/04/09 10:49:24;;;;;;;2.42;1.38;;;;;;;19.18;48.02;99655.44;4894345;29;20128;-63
2023/04/09 10:52:12;;;;;;;2.05;1.27;;;;;;;19.19;48.20;99654.50;4894440;29;20045;-62
2023/04/09 10:54:45;;;;;;;2.10;1.20;;;;;;;19.21;48.32;99649.97;4878248;29;20033;-62
2023/04/09 10:57:16;;;;;;;2.30;1.15;;;;;;;19.23;48.07;99647.25;4894340;29;20029;-62
2023/04/09 10:59:50;;;;;;;2.47;1.17;;;;;;;19.24;48.10;99647.19;4894483;29;20131;-61
2023/04/09 11:02:40;;;;;;;1.75;1.20;;;;;;;19.26;48.42;99642.66;4894306;29;20028;-62
2023/04/09 11:05:31;;;;;;;2.80;1.20;;;;;;;19.27;48.16;99649.66;4894321;29;20496;-62
2023/04/09 11:07:59;;;;;;;1.30;0.90;;;;;;;19.29;48.40;99639.88;4896248;29;20052;-62
2023/04/09 11:10:25;;;;;;;2.13;1.00;;;;;;;19.29;48.34;99631.06;4897768;29;20028;-63
2023/04/09 11:12:52;;;;;;;1.92;1.13;;;;;;;19.32;48.49;99634.41;4897670;29;20056;-63
2023/04/09 11:15:18;;;;;;;3.03;1.20;;;;;;;19.32;48.26;99626.47;4897624;29;20037;-62
2023/04/09 11:17:45;;;;;;;3.13;1.20;;;;;;;19.35;48.41;99624.59;4897507;29;20562;-63
2023/04/09 11:20:12;;;;;;;2.35;1.23;;;;;;;19.37;48.38;99628.03;4897859;29;20064;-63
2023/04/09 11:22:37;;;;;;;2.25;1.00;;;;;;;19.37;48.52;99626.22;4897162;29;20043;-62
2023/04/09 11:25:03;;;;;;;2.08;1.10;;;;;;;19.40;48.28;99619.91;4946742;28;20047;-62
2023/04/09 11:27:29;;;;;;;2.72;1.20;;;;;;;19.42;48.56;99620.72;4975749;28;20089;-62
2023/04/09 11:29:55;;;;;;;2.03;1.10;;;;;;;19.42;48.55;99620.72;4975941;28;20046;-62
2023/04/09 11:32:20;;;;;;;1.40;0.88;;;;;;;19.45;48.40;99617.88;4975987;28;20515;-64
2023/04/09 11:34:46;;;;;;;2.38;1.20;;;;;;;19.47;48.40;99621.31;4975719;28;20073;-63
2023/04/09 11:37:15;;;;;;;2.00;1.20;;;;;;;19.47;48.68;99613.38;4975246;28;20021;-63